Time;durP1;ratioP1;P1;durP2;ratioP2;P2;SDS_P1;SDS_P2;PMS_P1;PMS_P2;Temp;Humidity;BMP_temperature;BMP_pressure;BME280_temperature;BME280_humidity;BME280_pressure;Samples;Min_cycle;Max_cycle;Signal;HPM_P1;HPM_P2
2022/04/11 00:02:00;;;;;;;4.03;3.77;;;5.80;1.00;;;;;;6248262;28;20225;-56
2022/04/11 00:05:04;;;;;;;5.83;3.90;;;5.50;1.00;;;;;;6256053;28;20511;-56
2022/04/11 00:08:07;;;;;;;4.77;4.00;;;5.80;1.00;;;;;;6247142;28;20246;-56
2022/04/11 00:11:11;;;;;;;8.67;4.27;;;5.60;1.00;;;;;;6257836;28;20240;-56
2022/04/11 00:14:13;;;;;;;4.10;3.70;;;5.40;1.00;;;;;;6259686;28;20325;-57
2022/04/11 00:17:16;;;;;;;6.73;4.00;;;5.80;1.00;;;;;;6271642;28;20237;-55
2022/04/11 00:20:19;;;;;;;5.27;3.70;;;5.40;1.00;;;;;;6259808;28;20239;-56
2022/04/11 00:23:22;;;;;;;5.50;3.70;;;5.50;1.00;;;;;;6256387;28;20263;-57
2022/04/11 00:26:26;;;;;;;7.20;4.00;;;5.70;1.00;;;;;;6237277;28;20325;-55
2022/04/11 00:29:29;;;;;;;4.53;4.10;;;5.60;1.00;;;;;;6241741;28;20235;-56
2022/04/11 00:32:32;;;;;;;4.30;4.00;;;5.60;1.00;;;;;;6241951;28;20258;-56
2022/04/11 00:35:35;;;;;;;4.20;3.93;;;5.50;1.00;;;;;;6256494;28;20288;-55
2022/04/11 00:38:38;;;;;;;5.17;3.30;;;5.40;1.00;;;;;;6265049;28;20233;-55
2022/04/11 00:41:42;;;;;;;5.43;3.63;;;5.40;1.00;;;;;;6258394;28;20258;-56
2022/04/11 00:44:44;;;;;;;6.60;3.87;;;5.20;1.00;;;;;;6262493;28;20318;-55
2022/04/11 00:47:47;;;;;;;5.33;4.13;;;5.40;1.00;;;;;;6262405;28;20682;-57
2022/04/11 00:50:51;;;;;;;6.53;4.53;;;5.30;1.00;;;;;;6252826;28;20303;-57
2022/04/11 00:53:58;;;;;;;5.23;3.60;;;5.30;1.00;;;;;;6236002;28;20250;-55
2022/04/11 00:57:02;;;;;;;4.77;3.83;;;5.20;1.00;;;;;;6235879;28;20369;-57
2022/04/11 01:00:08;;;;;;;4.30;3.90;;;5.10;1.00;;;;;;6234265;28;20340;-55
2022/04/11 01:03:11;;;;;;;4.03;3.70;;;5.10;1.00;;;;;;6235974;28;20269;-55
2022/04/11 01:06:14;;;;;;;6.33;3.77;;;5.30;1.00;;;;;;6244256;28;20308;-56
2022/04/11 01:09:16;;;;;;;6.27;3.83;;;5.30;1.00;;;;;;6259349;28;20321;-56
2022/04/11 01:12:22;;;;;;;5.00;3.93;;;4.90;1.00;;;;;;6251702;28;20253;-55
2022/04/11 01:15:25;;;;;;;3.70;3.60;;;5.00;1.00;;;;;;6259312;28;20698;-55
2022/04/11 01:18:28;;;;;;;4.57;4.20;;;5.00;1.00;;;;;;6258528;28;20241;-56
2022/04/11 01:21:32;;;;;;;4.00;3.60;;;5.00;1.00;;;;;;6239761;28;20325;-56
2022/04/11 01:24:37;;;;;;;4.37;4.00;;;4.80;1.00;;;;;;6234459;28;20324;-56
2022/04/11 01:27:40;;;;;;;7.37;4.03;;;4.90;1.00;;;;;;6238002;28;20329;-55
2022/04/11 01:30:43;;;;;;;4.07;3.90;;;4.90;1.00;;;;;;6246652;28;20319;-55
2022/04/11 01:33:46;;;;;;;5.03;4.00;;;4.70;1.00;;;;;;6265535;28;20268;-55
2022/04/11 01:36:50;;;;;;;4.50;3.80;;;4.80;1.00;;;;;;6283992;28;20233;-56
2022/04/11 01:39:52;;;;;;;4.40;4.10;;;5.00;1.00;;;;;;6288302;28;20332;-56
2022/04/11 01:42:55;;;;;;;4.47;4.03;;;4.80;1.00;;;;;;6284872;28;20302;-56
2022/04/11 01:45:58;;;;;;;6.67;3.67;;;4.70;1.00;;;;;;6277803;28;20246;-55
2022/04/11 01:49:01;;;;;;;5.70;4.33;;;4.70;1.00;;;;;;6260462;28;20234;-55
2022/04/11 01:52:05;;;;;;;4.13;3.73;;;4.50;1.00;;;;;;6260174;28;20237;-55
2022/04/11 01:55:09;;;;;;;5.87;3.93;;;4.60;1.00;;;;;;6259633;28;20387;-57
2022/04/11 01:58:19;;;;;;;3.67;3.53;;;4.50;1.00;;;;;;6259220;28;20257;-55
2022/04/11 02:01:22;;;;;;;4.17;3.77;;;4.70;1.00;;;;;;6260004;28;20234;-56
2022/04/11 02:04:25;;;;;;;4.93;3.97;;;4.50;1.00;;;;;;6276164;28;20248;-57
2022/04/11 02:07:29;;;;;;;6.57;3.87;;;4.40;1.00;;;;;;6288373;28;20739;-56
2022/04/11 02:10:31;;;;;;;3.83;3.60;;;4.30;1.00;;;;;;6281546;28;20646;-57
2022/04/11 02:13:34;;;;;;;4.30;3.63;;;4.30;1.00;;;;;;6269021;28;20241;-56
2022/04/11 02:16:37;;;;;;;4.37;4.10;;;4.60;1.00;;;;;;6283642;28;20320;-56
2022/04/11 02:19:40;;;;;;;3.93;3.63;;;4.30;1.00;;;;;;6282442;28;20233;-56
2022/04/11 02:22:49;;;;;;;5.97;3.87;;;4.50;1.00;;;;;;6259088;28;20317;-55
2022/04/11 02:25:51;;;;;;;5.23;3.97;;;4.30;1.00;;;;;;6259009;28;20230;-55
2022/04/11 02:28:54;;;;;;;5.57;3.73;;;4.10;1.00;;;;;;6263651;28;20320;-56
2022/04/11 02:31:57;;;;;;;4.67;4.23;;;4.20;1.00;;;;;;6285318;28;20608;-56
2022/04/11 02:35:00;;;;;;;5.10;4.40;;;4.30;1.00;;;;;;6275745;28;20940;-56
2022/04/11 02:38:04;;;;;;;4.73;4.20;;;4.20;1.00;;;;;;6275907;28;20229;-56
2022/04/11 02:41:07;;;;;;;5.00;4.13;;;4.20;1.00;;;;;;6282777;28;20240;-57
2022/04/11 02:44:09;;;;;;;5.00;4.40;;;4.30;1.00;;;;;;6277097;28;20240;-56
2022/04/11 02:47:12;;;;;;;4.23;3.90;;;4.30;1.00;;;;;;6258405;28;20331;-55
2022/04/11 02:50:15;;;;;;;5.90;3.70;;;4.30;1.00;;;;;;6257938;28;20226;-56
2022/04/11 02:53:19;;;;;;;4.47;4.00;;;3.90;1.00;;;;;;6257717;28;20325;-55
2022/04/11 02:56:22;;;;;;;4.13;3.93;;;4.10;1.00;;;;;;6258926;28;20519;-55
2022/04/11 02:59:24;;;;;;;5.03;4.33;;;4.00;1.00;;;;;;6270171;28;20240;-54
2022/04/11 03:02:28;;;;;;;8.30;3.73;;;4.00;1.00;;;;;;6267072;28;20234;-57
2022/04/11 03:05:31;;;;;;;4.13;3.80;;;3.90;1.00;;;;;;6276865;28;20771;-57
2022/04/11 03:08:35;;;;;;;5.93;4.30;;;4.00;1.00;;;;;;6286849;28;20242;-56
2022/04/11 03:11:38;;;;;;;6.10;4.30;;;3.90;1.00;;;;;;6280209;28;20331;-56
2022/04/11 03:14:40;;;;;;;4.73;4.33;;;4.00;1.00;;;;;;6276176;28;20312;-56
2022/04/11 03:17:43;;;;;;;4.40;4.10;;;3.90;1.00;;;;;;6275972;28;20286;-57
2022/04/11 03:20:47;;;;;;;4.37;4.07;;;4.10;1.00;;;;;;6258567;28;20496;-56
2022/04/11 03:23:51;;;;;;;4.70;4.10;;;4.00;1.00;;;;;;6257568;28;20234;-56
2022/04/11 03:26:54;;;;;;;4.40;4.00;;;3.90;1.00;;;;;;6257043;28;20237;-55
2022/04/11 03:29:57;;;;;;;5.53;3.97;;;4.20;1.00;;;;;;6257304;28;20265;-56
2022/04/11 03:32:59;;;;;;;7.30;4.37;;;4.00;1.00;;;;;;6255883;28;20324;-56
2022/04/11 03:36:02;;;;;;;4.73;4.30;;;3.90;1.00;;;;;;6284949;28;20245;-55
2022/04/11 03:39:06;;;;;;;5.80;4.03;;;4.20;1.00;;;;;;6281631;28;20467;-54
2022/04/11 03:42:09;;;;;;;4.33;3.93;;;3.80;1.00;;;;;;6285216;28;20689;-57
2022/04/11 03:45:12;;;;;;;4.63;4.17;;;4.20;1.00;;;;;;6282482;28;20469;-55
2022/04/11 03:48:15;;;;;;;4.40;4.00;;;3.90;1.00;;;;;;6281745;28;20248;-56
2022/04/11 03:51:17;;;;;;;4.77;4.37;;;3.80;1.00;;;;;;6283731;28;20261;-55
2022/04/11 03:54:21;;;;;;;6.17;4.20;;;4.10;1.00;;;;;;6296352;28;20257;-56
2022/04/11 03:57:24;;;;;;;6.63;4.30;;;4.00;1.00;;;;;;6286916;28;20229;-56
2022/04/11 04:00:27;;;;;;;4.50;4.17;;;3.90;1.00;;;;;;6286494;28;20241;-54
2022/04/11 04:03:30;;;;;;;5.60;4.23;;;3.90;1.00;;;;;;6293998;28;20633;-56
2022/04/11 04:06:33;;;;;;;5.87;4.40;;;3.90;1.00;;;;;;6286264;28;20238;-57
2022/04/11 04:09:37;;;;;;;4.40;4.13;;;3.80;1.00;;;;;;6290431;28;20254;-56
2022/04/11 04:12:39;;;;;;;5.23;3.93;;;4.00;1.00;;;;;;6281428;28;20386;-56
2022/04/11 04:15:43;;;;;;;5.07;4.30;;;3.70;1.00;;;;;;6289386;28;20233;-56
2022/04/11 04:18:45;;;;;;;5.63;4.53;;;3.90;1.00;;;;;;6292559;28;20709;-56
2022/04/11 04:21:49;;;;;;;4.77;4.47;;;4.00;1.00;;;;;;6291877;28;20225;-56
2022/04/11 04:24:53;;;;;;;4.60;4.20;;;3.80;1.00;;;;;;6293315;28;20272;-55
2022/04/11 04:27:57;;;;;;;4.77;4.47;;;4.10;1.00;;;;;;6286116;28;20716;-54
2022/04/11 04:31:00;;;;;;;6.03;4.83;;;4.00;1.00;;;;;;6292016;28;20306;-55
2022/04/11 04:34:03;;;;;;;4.73;4.37;;;3.90;1.00;;;;;;6290656;28;20230;-56
2022/04/11 04:37:06;;;;;;;4.80;4.53;;;4.00;1.00;;;;;;6296747;28;20295;-55
2022/04/11 04:40:11;;;;;;;4.60;4.30;;;3.90;1.00;;;;;;6292680;28;20854;-55
2022/04/11 04:43:14;;;;;;;6.23;4.63;;;3.80;1.00;;;;;;6293197;28;20489;-56
2022/04/11 04:46:16;;;;;;;4.97;4.50;;;3.70;1.00;;;;;;6281044;28;20318;-54
2022/04/11 04:49:19;;;;;;;5.40;5.00;;;3.90;1.00;;;;;;6285817;28;20240;-55
2022/04/11 04:52:22;;;;;;;5.07;4.73;;;3.90;1.00;;;;;;6292929;28;20247;-60
2022/04/11 04:55:26;;;;;;;5.47;5.00;;;3.70;1.00;;;;;;6286080;28;20336;-55
2022/04/11 04:58:29;;;;;;;5.10;4.70;;;3.60;1.00;;;;;;6283206;28;20732;-55
2022/04/11 05:01:31;;;;;;;4.97;4.57;;;3.60;1.00;;;;;;6288166;28;20795;-54
2022/04/11 05:04:34;;;;;;;5.17;4.73;;;3.70;1.00;;;;;;6286678;28;20229;-55
2022/04/11 05:07:37;;;;;;;5.90;4.83;;;3.70;1.00;;;;;;6280219;28;20662;-55
2022/04/11 05:10:47;;;;;;;5.33;5.00;;;3.70;1.00;;;;;;6282239;28;20244;-55
2022/04/11 05:13:50;;;;;;;6.73;5.00;;;3.70;1.00;;;;;;6287813;28;20285;-55
2022/04/11 05:16:58;;;;;;;5.03;4.73;;;4.00;1.00;;;;;;6286005;28;20953;-56
2022/04/11 05:20:01;;;;;;;5.23;4.80;;;3.80;1.00;;;;;;6288092;28;20475;-56
2022/04/11 05:23:03;;;;;;;6.37;4.93;;;3.90;1.00;;;;;;6286191;28;20737;-55
2022/04/11 05:26:07;;;;;;;6.23;5.70;;;4.10;1.00;;;;;;6283963;28;20241;-55
2022/04/11 05:29:10;;;;;;;5.67;5.17;;;4.00;1.00;;;;;;6292599;28;20279;-55
2022/04/11 05:32:13;;;;;;;5.30;4.90;;;4.00;1.00;;;;;;6289482;28;20379;-55
2022/04/11 05:35:15;;;;;;;8.03;5.90;;;4.30;1.00;;;;;;6282795;28;20781;-57
2022/04/11 05:38:19;;;;;;;5.70;5.20;;;4.30;1.00;;;;;;6288004;28;20244;-56
2022/04/11 05:41:23;;;;;;;5.60;5.10;;;4.40;1.00;;;;;;6280526;28;20244;-55
2022/04/11 05:44:26;;;;;;;6.10;5.50;;;4.10;1.00;;;;;;6286951;28;20602;-56
2022/04/11 05:47:29;;;;;;;6.70;5.70;;;4.30;1.00;;;;;;6285000;28;20375;-56
2022/04/11 05:50:32;;;;;;;5.87;5.50;;;4.50;1.00;;;;;;6280156;28;20263;-55
2022/04/11 05:53:35;;;;;;;6.43;5.60;;;4.50;1.00;;;;;;6290296;28;20286;-56
2022/04/11 05:56:39;;;;;;;6.23;5.67;;;4.50;1.00;;;;;;6280168;28;20705;-56
2022/04/11 05:59:42;;;;;;;5.93;5.33;;;4.70;1.00;;;;;;6287918;28;20314;-57
2022/04/11 06:02:45;;;;;;;5.40;5.00;;;4.60;1.00;;;;;;6283878;28;20323;-56
2022/04/11 06:05:47;;;;;;;5.90;5.40;;;4.80;1.00;;;;;;6291101;28;20233;-55
2022/04/11 06:08:51;;;;;;;7.43;5.20;;;4.90;1.00;;;;;;6297117;28;20827;-56
2022/04/11 06:11:55;;;;;;;5.13;4.73;;;5.00;1.00;;;;;;6279805;28;20511;-55
2022/04/11 06:14:58;;;;;;;11.20;5.43;;;5.20;1.00;;;;;;6294737;28;20756;-57
2022/04/11 06:18:01;;;;;;;5.30;4.83;;;5.50;1.00;;;;;;6283090;28;20701;-55
2022/04/11 06:21:04;;;;;;;6.70;4.73;;;5.90;1.00;;;;;;6282914;28;20320;-54
2022/04/11 06:24:07;;;;;;;5.03;4.77;;;6.30;1.00;;;;;;6284144;28;20631;-55
2022/04/11 06:27:11;;;;;;;4.87;4.43;;;6.70;1.00;;;;;;6282074;28;20324;-56
2022/04/11 06:30:14;;;;;;;5.33;4.37;;;6.60;1.00;;;;;;6281666;28;20232;-56
2022/04/11 06:33:18;;;;;;;5.87;4.20;;;7.30;1.00;;;;;;6284515;28;20240;-55
2022/04/11 06:36:20;;;;;;;4.30;4.00;;;7.80;1.00;;;;;;6288997;28;20500;-56
2022/04/11 06:39:23;;;;;;;4.27;3.80;;;8.10;1.00;;;;;;6284766;28;20255;-56
2022/04/11 06:42:27;;;;;;;6.03;4.00;;;8.20;1.00;;;;;;6291582;28;20294;-58
2022/04/11 06:45:30;;;;;;;4.30;3.80;;;8.10;1.00;;;;;;6283368;28;20233;-55
2022/04/11 06:48:33;;;;;;;5.03;4.10;;;8.00;1.00;;;;;;6280240;28;20296;-57
2022/04/11 06:51:35;;;;;;;4.10;3.83;;;7.80;1.00;;;;;;6286630;28;20240;-55
2022/04/11 06:54:38;;;;;;;4.03;3.70;;;7.60;1.00;;;;;;6283366;28;20233;-56
2022/04/11 06:57:42;;;;;;;3.90;3.80;;;7.70;1.00;;;;;;6284740;28;20307;-56
2022/04/11 07:00:45;;;;;;;9.93;3.80;;;7.60;99.90;;;;;;6283223;28;20314;-57
2022/04/11 07:03:48;;;;;;;6.37;3.97;;;7.50;99.90;;;;;;6284921;28;20777;-56
2022/04/11 07:06:51;;;;;;;4.57;3.77;;;7.60;99.90;;;;;;6283478;28;20722;-57
2022/04/11 07:09:54;;;;;;;4.43;4.13;;;7.60;99.90;;;;;;6277228;28;20282;-58
2022/04/11 07:12:59;;;;;;;5.30;3.40;;;7.50;99.90;;;;;;6289817;28;20561;-56
2022/04/11 07:16:02;;;;;;;3.77;3.47;;;7.50;99.90;;;;;;6287533;28;20240;-57
2022/04/11 07:19:06;;;;;;;3.60;3.40;;;7.60;99.90;;;;;;6275888;28;20237;-58
2022/04/11 07:22:09;;;;;;;4.17;3.80;;;7.70;99.90;;;;;;6284122;28;20236;-57
2022/04/11 07:25:12;;;;;;;4.93;3.60;;;7.60;99.90;;;;;;6285398;28;20237;-56
2022/04/11 07:28:16;;;;;;;4.10;3.70;;;7.70;99.90;;;;;;6279662;28;20328;-57
2022/04/11 07:31:19;;;;;;;4.07;3.80;;;7.80;99.90;;;;;;6291020;28;20353;-57
2022/04/11 07:34:22;;;;;;;3.87;3.57;;;7.80;99.90;;;;;;6286163;28;20634;-57
2022/04/11 07:37:25;;;;;;;3.97;3.47;;;7.90;99.90;;;;;;6274412;28;20320;-57
2022/04/11 07:40:28;;;;;;;3.67;3.57;;;7.80;99.90;;;;;;6294103;28;20282;-57
2022/04/11 07:43:32;;;;;;;3.57;3.47;;;8.00;99.90;;;;;;6288948;28;20229;-57
2022/04/11 07:46:35;;;;;;;6.43;3.53;;;7.90;99.90;;;;;;6287954;28;20750;-56
2022/04/11 07:49:38;;;;;;;5.10;4.13;;;8.00;99.90;;;;;;6284782;28;20241;-55
2022/04/11 07:52:43;;;;;;;4.10;3.50;;;8.10;99.90;;;;;;6286955;28;20225;-57
2022/04/11 07:55:45;;;;;;;3.90;3.60;;;8.20;99.90;;;;;;6284451;28;20257;-57
2022/04/11 07:58:50;;;;;;;4.07;3.77;;;8.50;99.90;;;;;;6283550;28;20255;-56
2022/04/11 08:01:57;;;;;;;3.83;3.53;;;8.60;99.90;;;;;;6285278;28;20842;-57
2022/04/11 08:05:02;;;;;;;5.73;3.53;;;8.70;99.90;;;;;;6279263;28;20463;-57
2022/04/11 08:08:05;;;;;;;3.63;3.33;;;8.80;99.90;;;;;;6283388;28;20230;-59
2022/04/11 08:11:08;;;;;;;3.57;3.37;;;8.80;99.90;;;;;;6282630;28;21883;-57
2022/04/11 08:14:24;;;;;;;3.40;3.20;;;8.90;99.90;;;;;;6287400;28;20229;-57
2022/04/11 08:17:26;;;;;;;3.30;3.00;;;9.00;99.90;;;;;;6281283;28;20241;-57
2022/04/11 08:20:29;;;;;;;3.47;3.10;;;9.10;99.90;;;;;;6279854;28;20241;-56
2022/04/11 08:23:32;;;;;;;3.33;3.13;;;9.20;99.90;;;;;;6268549;28;20311;-58
2022/04/11 08:26:35;;;;;;;5.43;2.97;;;9.20;99.90;;;;;;6284002;28;20682;-56
2022/04/11 08:29:39;;;;;;;3.63;3.33;;;9.30;99.90;;;;;;6282309;28;20599;-57
2022/04/11 08:32:45;;;;;;;4.07;3.10;;;9.40;99.90;;;;;;6285928;28;20898;-57
2022/04/11 08:35:48;;;;;;;3.40;3.10;;;9.40;99.90;;;;;;6284077;28;20256;-57
2022/04/11 08:38:52;;;;;;;3.60;3.30;;;9.40;99.90;;;;;;6284752;28;20350;-57
2022/04/11 08:42:00;;;;;;;3.60;3.30;;;9.40;99.90;;;;;;6284904;28;20257;-57
2022/04/11 08:45:13;;;;;;;3.20;3.00;;;9.50;99.90;;;;;;6289531;28;20726;-57
2022/04/11 08:48:17;;;;;;;3.10;2.90;;;9.60;99.90;;;;;;6277826;28;20253;-57
2022/04/11 08:51:19;;;;;;;3.70;2.90;;;9.80;99.90;;;;;;6288299;28;20320;-57
2022/04/11 08:54:23;;;;;;;3.03;2.83;;;9.90;99.90;;;;;;6293146;28;20394;-57
2022/04/11 08:57:25;;;;;;;2.90;2.70;;;10.00;99.90;;;;;;6291044;28;21016;-57
2022/04/11 09:00:31;;;;;;;2.87;2.77;;;10.00;99.90;;;;;;6278400;28;20245;-58
2022/04/11 09:03:33;;;;;;;3.10;2.80;;;10.20;99.90;;;;;;6300081;28;20386;-57
2022/04/11 09:06:36;;;;;;;3.63;2.63;;;10.30;99.90;;;;;;6285674;28;20414;-57
2022/04/11 09:09:40;;;;;;;3.50;3.30;;;10.30;99.90;;;;;;6286103;28;20724;-57
2022/04/11 09:12:48;;;;;;;2.97;2.87;;;10.30;99.90;;;;;;6286869;28;20225;-57
2022/04/11 09:15:55;;;;;;;2.43;2.43;;;10.10;99.90;;;;;;6298696;28;20261;-58
2022/04/11 09:18:58;;;;;;;2.30;2.30;;;10.10;99.90;;;;;;6280389;28;20237;-57
2022/04/11 09:22:02;;;;;;;2.67;2.57;;;10.10;99.90;;;;;;6279261;28;20264;-57
2022/04/11 09:25:11;;;;;;;2.47;2.43;;;10.20;99.90;;;;;;6293877;28;20244;-55
2022/04/11 09:28:14;;;;;;;3.17;3.07;;;10.20;99.90;;;;;;6285553;28;20380;-56
2022/04/11 09:31:22;;;;;;;3.20;2.90;;;10.30;99.90;;;;;;6288960;28;20717;-58
2022/04/11 09:34:26;;;;;;;2.43;2.43;;;10.30;99.90;;;;;;6274607;28;20248;-58
2022/04/11 09:37:29;;;;;;;2.70;2.60;;;10.40;99.90;;;;;;6276695;28;20327;-57
2022/04/11 09:40:35;;;;;;;2.87;2.70;;;10.40;99.90;;;;;;6282605;28;20233;-58
2022/04/11 09:43:38;;;;;;;2.80;2.70;;;10.40;99.90;;;;;;6276888;28;20320;-58
2022/04/11 09:46:45;;;;;;;2.77;2.50;;;10.40;99.90;;;;;;6289806;28;20428;-59
2022/04/11 09:49:47;;;;;;;2.50;2.40;;;10.40;99.90;;;;;;6277672;28;20241;-57
2022/04/11 09:52:50;;;;;;;2.90;2.70;;;10.40;99.90;;;;;;6281121;28;20566;-60
2022/04/11 09:55:55;;;;;;;2.37;2.33;;;10.40;99.90;;;;;;6291626;28;20324;-58
2022/04/11 09:58:59;;;;;;;3.17;2.97;;;10.40;99.90;;;;;;6286725;28;21011;-58
2022/04/11 10:02:05;;;;;;;2.80;2.70;;;10.20;99.90;;;;;;6279627;28;20243;-56
2022/04/11 10:05:11;;;;;;;2.40;2.30;;;10.30;99.90;;;;;;6283159;28;20734;-57
2022/04/11 10:08:14;;;;;;;2.50;2.40;;;10.30;99.90;;;;;;6283082;28;20640;-58
2022/04/11 10:11:19;;;;;;;2.87;2.77;;;10.20;99.90;;;;;;6284919;28;20579;-57
2022/04/11 10:14:27;;;;;;;4.67;3.10;;;10.30;99.90;;;;;;6288449;28;20379;-56
2022/04/11 10:17:31;;;;;;;4.83;2.90;;;10.40;99.90;;;;;;6278716;28;20269;-57
2022/04/11 10:20:37;;;;;;;3.03;2.83;;;10.40;99.90;;;;;;6278845;28;20320;-58
2022/04/11 10:23:54;;;;;;;3.57;2.60;;;10.50;99.90;;;;;;6284414;28;20706;-58
2022/04/11 10:26:57;;;;;;;2.73;2.67;;;10.70;99.90;;;;;;6289724;28;20388;-57
2022/04/11 10:30:02;;;;;;;3.60;2.80;;;10.70;99.90;;;;;;6253965;28;20326;-57
2022/04/11 10:33:06;;;;;;;2.90;2.80;;;10.90;99.90;;;;;;6261741;28;20238;-58
2022/04/11 10:36:35;;;;;;;2.87;2.67;;;11.20;99.90;;;;;;6261023;28;20321;-57
2022/04/11 10:39:39;;;;;;;2.80;2.70;;;11.40;99.90;;;;;;6267609;28;20624;-58
2022/04/11 10:43:12;;;;;;;2.90;2.80;;;11.60;99.90;;;;;;6257994;28;20230;-58
2022/04/11 10:46:15;;;;;;;2.73;2.63;;;11.90;99.90;;;;;;6260183;28;20234;-57
2022/04/11 10:49:19;;;;;;;3.10;3.00;;;11.80;99.90;;;;;;6273223;28;20718;-58
2022/04/11 10:52:32;;;;;;;2.63;2.63;;;11.80;99.90;;;;;;6254189;28;20244;-57
2022/04/11 10:55:36;;;;;;;2.97;2.90;;;11.90;99.90;;;;;;6249791;28;20786;-58
2022/04/11 10:58:44;;;;;;;3.13;3.00;;;11.90;99.90;;;;;;6248003;28;20329;-59
2022/04/11 11:01:58;;;;;;;2.90;2.80;;;11.90;99.90;;;;;;6259851;28;20664;-58
2022/04/11 11:05:23;;;;;;;2.80;2.60;;;11.90;99.90;;;;;;6282533;28;20320;-58
2022/04/11 11:08:33;;;;;;;3.33;3.13;;;11.90;99.90;;;;;;6265223;28;20230;-57
2022/04/11 11:11:35;;;;;;;3.10;2.90;;;12.10;99.90;;;;;;6260052;28;20730;-60
2022/04/11 11:14:40;;;;;;;3.13;3.03;;;12.10;99.90;;;;;;6256718;28;20399;-58
2022/04/11 11:17:57;;;;;;;2.90;2.70;;;12.10;99.90;;;;;;6257459;28;20234;-58
2022/04/11 11:21:01;;;;;;;2.90;2.70;;;12.20;99.90;;;;;;6271302;28;20387;-59
2022/04/11 11:24:10;;;;;;;3.50;3.20;;;12.20;99.90;;;;;;6244551;28;20388;-58
2022/04/11 11:27:16;;;;;;;3.10;2.80;;;12.10;99.90;;;;;;6257599;28;20257;-58
2022/04/11 11:30:18;;;;;;;3.53;3.00;;;12.00;99.90;;;;;;6252064;28;20327;-58
2022/04/11 11:33:21;;;;;;;3.07;2.90;;;11.90;99.90;;;;;;6257126;28;20256;-59
2022/04/11 11:36:30;;;;;;;3.53;3.23;;;11.90;99.90;;;;;;6243167;28;20285;-58
2022/04/11 11:39:41;;;;;;;3.07;2.80;;;11.90;99.90;;;;;;6249064;28;20635;-58
2022/04/11 11:42:44;;;;;;;3.30;3.20;;;11.80;99.90;;;;;;6282740;28;20550;-57
2022/04/11 11:45:47;;;;;;;3.73;2.83;;;11.70;99.90;;;;;;6267371;28;20313;-58
2022/04/11 11:48:50;;;;;;;3.03;2.93;;;11.60;99.90;;;;;;6268709;28;20230;-59
2022/04/11 11:51:54;;;;;;;7.00;3.00;;;11.80;99.90;;;;;;6252601;28;20346;-51
2022/04/11 11:54:57;;;;;;;2.80;2.70;;;12.10;99.90;;;;;;6253999;28;20372;-57
2022/04/11 11:58:04;;;;;;;3.23;3.13;;;12.30;99.90;;;;;;6257462;28;20241;-58
2022/04/11 12:01:11;;;;;;;2.47;2.47;;;12.30;99.90;;;;;;6256117;28;20264;-58
2022/04/11 12:04:19;;;;;;;4.00;2.80;;;12.40;99.90;;;;;;6255414;28;20306;-58
2022/04/11 12:07:24;;;;;;;4.50;3.17;;;12.20;99.90;;;;;;6261029;28;20328;-57
2022/04/11 12:10:27;;;;;;;4.03;2.63;;;12.10;99.90;;;;;;6255880;28;20313;-58
2022/04/11 12:13:32;;;;;;;3.00;2.80;;;12.20;99.90;;;;;;6260854;28;20238;-59
2022/04/11 12:16:37;;;;;;;2.90;2.70;;;12.50;99.90;;;;;;6256260;28;20230;-58
2022/04/11 12:19:40;;;;;;;3.07;2.87;;;12.80;99.90;;;;;;6251501;28;20234;-58
2022/04/11 12:23:02;;;;;;;3.00;2.80;;;13.00;99.90;;;;;;6277940;28;20282;-58
2022/04/11 12:26:05;;;;;;;2.83;2.63;;;13.30;99.90;;;;;;6270220;28;20238;-59
2022/04/11 12:29:10;;;;;;;2.53;2.43;;;13.60;99.90;;;;;;6262383;28;20288;-60
2022/04/11 12:32:15;;;;;;;4.17;2.70;;;13.30;99.90;;;;;;6260875;28;20238;-58
2022/04/11 12:35:19;;;;;;;3.30;3.10;;;13.40;99.90;;;;;;6250676;28;20316;-59
2022/04/11 12:38:45;;;;;;;2.53;2.53;;;13.30;99.90;;;;;;6271028;28;20550;-59
2022/04/11 12:41:48;;;;;;;3.00;2.90;;;13.30;99.90;;;;;;6260318;28;20383;-58
2022/04/11 12:45:01;;;;;;;2.93;2.80;;;13.10;99.90;;;;;;6255881;28;20805;-57
2022/04/11 12:48:09;;;;;;;4.70;3.17;;;12.70;99.90;;;;;;6257591;28;20227;-58
2022/04/11 12:51:13;;;;;;;3.93;3.13;;;12.40;99.90;;;;;;6252521;28;20325;-59
2022/04/11 12:54:17;;;;;;;3.10;3.00;;;12.30;99.90;;;;;;6259396;28;20360;-58
2022/04/11 12:57:21;;;;;;;3.40;3.10;;;12.20;99.90;;;;;;6255977;28;20317;-58
2022/04/11 13:00:25;;;;;;;3.30;3.10;;;12.10;99.90;;;;;;6251556;28;20234;-61
2022/04/11 13:03:28;;;;;;;3.70;3.23;;;12.00;99.90;;;;;;6251062;28;20287;-59
2022/04/11 13:06:31;;;;;;;3.27;3.07;;;12.10;99.90;;;;;;6257304;28;20519;-58
2022/04/11 13:09:37;;;;;;;3.20;3.00;;;12.20;99.90;;;;;;6256319;28;20329;-57
2022/04/11 13:12:39;;;;;;;3.20;2.90;;;12.40;99.90;;;;;;6259473;28;20323;-58
2022/04/11 13:18:59;;;;;;;3.23;3.03;;;13.00;99.90;;;;;;6249726;28;20230;-58
2022/04/11 13:22:02;;;;;;;4.67;3.33;;;13.30;99.90;;;;;;6261668;28;20242;-58
2022/04/11 13:25:08;;;;;;;3.27;3.00;;;13.10;99.90;;;;;;6260588;28;20315;-58
2022/04/11 13:28:11;;;;;;;3.20;3.00;;;12.90;99.90;;;;;;6259187;28;20242;-58
2022/04/11 13:31:13;;;;;;;3.20;3.10;;;12.70;99.90;;;;;;6272603;28;20778;-59
2022/04/11 13:34:16;;;;;;;3.20;3.00;;;12.60;99.90;;;;;;6258651;28;20234;-58
2022/04/11 13:37:19;;;;;;;4.57;3.80;;;12.50;99.90;;;;;;6261344;28;20668;-60
2022/04/11 13:40:33;;;;;;;3.37;3.17;;;12.50;99.90;;;;;;6250380;28;20230;-58
2022/04/11 13:43:35;;;;;;;3.43;3.23;;;12.40;99.90;;;;;;6245543;28;20703;-59
2022/04/11 13:46:46;;;;;;;5.03;3.47;;;12.50;99.90;;;;;;6274908;28;20721;-58
2022/04/11 13:49:48;;;;;;;3.40;3.30;;;12.50;99.90;;;;;;6257477;28;20234;-58
2022/04/11 13:52:51;;;;;;;3.30;3.10;;;12.70;99.90;;;;;;6258297;28;20222;-57
2022/04/11 13:55:55;;;;;;;6.77;3.10;;;12.80;99.90;;;;;;6258593;28;20874;-58
2022/04/11 13:58:58;;;;;;;6.27;3.40;;;12.90;99.90;;;;;;6259243;28;20234;-59
2022/04/11 14:02:01;;;;;;;3.77;3.20;;;13.00;99.90;;;;;;6251492;28;20325;-58
2022/04/11 14:05:04;;;;;;;3.37;3.20;;;13.00;99.90;;;;;;6267360;28;20529;-57
2022/04/11 14:08:08;;;;;;;4.43;3.60;;;13.20;99.90;;;;;;6250182;28;20235;-58
2022/04/11 14:11:12;;;;;;;3.13;3.03;;;13.30;99.90;;;;;;6256786;28;20311;-58
2022/04/11 14:14:14;;;;;;;3.40;3.20;;;13.40;99.90;;;;;;6259458;28;20679;-58
2022/04/11 14:17:17;;;;;;;3.93;3.63;;;13.30;99.90;;;;;;6264636;28;20297;-58
2022/04/11 14:20:20;;;;;;;4.67;3.77;;;13.40;99.90;;;;;;6263374;28;20263;-59
2022/04/11 14:23:24;;;;;;;4.63;3.10;;;13.50;99.90;;;;;;6256348;28;20799;-58
2022/04/11 14:26:28;;;;;;;3.23;3.13;;;13.50;99.90;;;;;;6257415;28;20458;-58
2022/04/11 14:29:31;;;;;;;3.77;3.40;;;13.90;99.90;;;;;;6258937;28;20329;-61
2022/04/11 14:32:34;;;;;;;3.07;2.93;;;14.00;99.90;;;;;;6264870;28;20234;-58
2022/04/11 14:35:38;;;;;;;3.73;3.43;;;13.90;99.90;;;;;;6252361;28;20320;-58
2022/04/11 14:38:41;;;;;;;3.63;3.37;;;14.10;99.90;;;;;;6257392;28;20296;-59
2022/04/11 14:41:45;;;;;;;3.43;3.33;;;14.20;99.90;;;;;;6255816;28;20558;-58
2022/04/11 14:44:48;;;;;;;3.80;3.50;;;14.20;99.90;;;;;;6251192;28;20341;-58
2022/04/11 14:47:55;;;;;;;6.43;3.67;;;13.90;99.90;;;;;;6269125;28;20705;-56
2022/04/11 14:50:58;;;;;;;3.30;3.03;;;13.80;99.90;;;;;;6259321;28;20229;-58
2022/04/11 14:54:00;;;;;;;3.70;2.87;;;13.50;99.90;;;;;;6255890;28;20325;-59
2022/04/11 14:57:05;;;;;;;3.97;3.77;;;13.50;99.90;;;;;;6267786;28;20265;-60
2022/04/11 15:00:09;;;;;;;3.60;3.30;;;13.30;99.90;;;;;;6260019;28;20328;-58
2022/04/11 15:03:12;;;;;;;3.83;3.73;;;13.30;99.90;;;;;;6258913;28;20295;-59
2022/04/11 15:06:15;;;;;;;3.80;3.50;;;13.60;99.90;;;;;;6252357;28;20464;-59
2022/04/11 15:09:18;;;;;;;3.70;3.50;;;13.70;99.90;;;;;;6254452;28;20240;-58
2022/04/11 15:12:22;;;;;;;3.80;3.50;;;13.90;99.90;;;;;;6259028;28;20261;-58
2022/04/11 15:15:25;;;;;;;3.93;3.60;;;13.90;99.90;;;;;;6262025;28;20279;-58
2022/04/11 15:18:28;;;;;;;4.60;4.20;;;13.90;99.90;;;;;;6259354;28;20234;-58
2022/04/11 15:21:30;;;;;;;3.60;3.50;;;13.70;99.90;;;;;;6249811;28;20376;-59
2022/04/11 15:24:34;;;;;;;3.87;3.53;;;13.50;99.90;;;;;;6256668;28;20332;-58
2022/04/11 15:27:38;;;;;;;5.27;3.83;;;13.40;99.90;;;;;;6249767;28;20241;-58
2022/04/11 15:30:40;;;;;;;4.13;3.47;;;13.20;99.90;;;;;;6261176;28;20306;-58
2022/04/11 15:33:43;;;;;;;3.90;3.70;;;13.20;99.90;;;;;;6260677;28;20242;-61
2022/04/11 15:36:46;;;;;;;4.30;3.90;;;13.10;99.90;;;;;;6256807;28;20243;-58
2022/04/11 15:39:49;;;;;;;4.30;3.60;;;13.00;99.90;;;;;;6266838;28;20261;-57
2022/04/11 15:42:53;;;;;;;4.13;3.83;;;12.90;99.90;;;;;;6258105;28;20265;-58
2022/04/11 15:45:56;;;;;;;3.80;3.50;;;12.70;99.90;;;;;;6259611;28;20233;-58
2022/04/11 15:49:00;;;;;;;4.10;3.93;;;12.70;99.90;;;;;;6260659;28;20297;-58
2022/04/11 15:52:05;;;;;;;4.10;3.87;;;12.70;99.90;;;;;;6257405;28;20594;-58
2022/04/11 15:55:08;;;;;;;3.90;3.63;;;12.70;99.90;;;;;;6267715;28;20241;-57
2022/04/11 15:58:13;;;;;;;3.87;3.53;;;12.60;99.90;;;;;;6269160;28;20723;-58
2022/04/11 16:01:16;;;;;;;3.60;3.40;;;12.70;99.90;;;;;;6255551;28;20322;-56
2022/04/11 16:04:19;;;;;;;3.90;3.60;;;12.70;99.90;;;;;;6265582;28;20614;-57
2022/04/11 16:07:22;;;;;;;3.40;3.30;;;12.60;99.90;;;;;;6275131;28;20333;-59
2022/04/11 16:10:25;;;;;;;3.70;3.40;;;12.60;99.90;;;;;;6263882;28;20238;-58
2022/04/11 16:13:29;;;;;;;4.40;4.10;;;12.50;99.90;;;;;;6261535;28;20295;-58
2022/04/11 16:16:34;;;;;;;4.20;4.00;;;12.60;99.90;;;;;;6262406;28;20253;-58